createdAt,value
2023-01-19T00:00:46.314Z,99004.44
2023-01-19T00:03:16.393Z,99012.53
2023-01-19T00:05:44.040Z,99024.41
2023-01-19T00:08:14.884Z,99035.13
2023-01-19T00:10:43.995Z,99050.50
2023-01-19T00:13:10.594Z,99056.28
2023-01-19T00:15:37.286Z,99046.81
2023-01-19T00:18:03.825Z,99063.38
2023-01-19T00:20:32.821Z,99061.28
2023-01-19T00:22:59.692Z,99069.63
2023-01-19T00:25:26.680Z,99068.78
2023-01-19T00:27:53.164Z,99067.97
2023-01-19T00:30:19.688Z,99067.31
2023-01-19T00:32:46.199Z,99080.38
2023-01-19T00:35:12.701Z,99090.31
2023-01-19T00:37:39.256Z,99089.53
2023-01-19T00:40:06.571Z,99088.75
2023-01-19T00:42:41.785Z,99095.97
2023-01-19T00:45:10.213Z,99103.50
2023-01-19T00:47:36.921Z,99114.47
2023-01-19T00:50:03.830Z,99117.91
2023-01-19T00:52:30.307Z,99117.25
2023-01-19T00:54:56.954Z,99113.25
2023-01-19T00:57:23.599Z,99110.78
2023-01-19T00:59:50.147Z,99115.56
2023-01-19T01:02:16.821Z,99110.38
2023-01-19T01:04:43.631Z,99100.41
2023-01-19T01:07:10.170Z,99096.75
2023-01-19T01:09:36.735Z,99095.00
2023-01-19T01:12:03.738Z,99095.25
2023-01-19T01:14:32.506Z,99092.34
2023-01-19T01:16:59.068Z,99096.31
2023-01-19T01:19:25.809Z,99087.81
2023-01-19T01:21:52.451Z,99090.09
2023-01-19T01:24:19.028Z,99086.63
2023-01-19T01:26:45.846Z,99087.84
2023-01-19T01:29:12.388Z,99077.47
2023-01-19T01:31:39.115Z,99067.72
2023-01-19T01:34:05.759Z,99073.31
2023-01-19T01:36:33.541Z,99076.63
2023-01-19T01:39:00.309Z,99076.16
2023-01-19T01:41:27.675Z,99079.19
2023-01-19T01:44:01.799Z,99081.63
2023-01-19T01:46:30.839Z,99078.16
2023-01-19T01:49:04.681Z,99076.69
2023-01-19T01:51:48.424Z,99076.69
2023-01-19T01:54:23.036Z,99071.47
2023-01-19T01:56:52.554Z,99071.91
2023-01-19T01:59:49.964Z,99067.31
2023-01-19T02:02:39.348Z,99062.03
2023-01-19T02:05:11.251Z,99075.16
2023-01-19T02:08:04.184Z,99077.69
2023-01-19T02:10:50.301Z,99067.38
2023-01-19T02:13:22.789Z,99075.56
2023-01-19T02:15:55.132Z,99073.66
2023-01-19T02:18:23.641Z,99071.91
2023-01-19T02:21:04.760Z,99078.28
2023-01-19T02:23:57.006Z,99077.41
2023-01-19T02:26:27.757Z,99075.97
2023-01-19T02:28:58.601Z,99065.34
2023-01-19T02:31:26.016Z,99064.16
2023-01-19T02:33:53.001Z,99066.41
2023-01-19T02:36:24.767Z,99070.59
2023-01-19T02:38:56.267Z,99070.19
2023-01-19T02:41:28.515Z,99065.19
2023-01-19T02:43:57.471Z,99066.97
2023-01-19T02:46:24.694Z,99064.88
2023-01-19T02:48:51.255Z,99075.56
2023-01-19T02:51:24.035Z,99081.66
2023-01-19T02:54:28.764Z,99073.66
2023-01-19T02:57:10.901Z,99077.56
2023-01-19T02:59:40.300Z,99081.13
2023-01-19T03:02:22.912Z,99088.66
2023-01-19T03:04:56.554Z,99086.84
2023-01-19T03:07:44.880Z,99089.06
2023-01-19T03:10:23.309Z,99080.25
2023-01-19T03:13:09.860Z,99077.38
2023-01-19T03:15:46.982Z,99069.78
2023-01-19T03:18:16.079Z,99070.09
2023-01-19T03:20:44.375Z,99071.16
2023-01-19T03:23:14.711Z,99076.13
2023-01-19T03:25:47.400Z,99076.78
2023-01-19T03:28:16.868Z,99078.84
2023-01-19T03:30:47.480Z,99087.00
2023-01-19T03:33:37.335Z,99078.69
2023-01-19T03:36:29.915Z,99087.44
2023-01-19T03:38:58.582Z,99097.03
2023-01-19T03:41:27.707Z,99101.66
2023-01-19T03:43:55.831Z,99098.56
2023-01-19T03:46:24.951Z,99097.94
2023-01-19T03:48:52.141Z,99101.72
2023-01-19T03:51:19.620Z,99107.38
2023-01-19T03:53:46.919Z,99111.94
2023-01-19T03:56:22.781Z,99117.28
2023-01-19T03:58:49.458Z,99114.63
2023-01-19T04:01:17.417Z,99122.28
2023-01-19T04:03:44.238Z,99122.34
2023-01-19T04:06:10.995Z,99133.84
2023-01-19T04:08:37.597Z,99127.09
2023-01-19T04:11:04.338Z,99139.88
2023-01-19T04:13:30.879Z,99142.13
2023-01-19T04:16:01.813Z,99142.97
2023-01-19T04:18:28.706Z,99144.34
2023-01-19T04:20:55.560Z,99151.72
2023-01-19T04:23:22.061Z,99151.63
2023-01-19T04:25:48.681Z,99149.53
2023-01-19T04:28:15.725Z,99158.88
2023-01-19T04:30:42.348Z,99154.03
2023-01-19T04:33:09.006Z,99156.59
2023-01-19T04:35:35.778Z,99157.78
2023-01-19T04:38:02.311Z,99168.25
2023-01-19T04:40:28.861Z,99174.31
2023-01-19T04:42:55.359Z,99165.91
2023-01-19T04:45:21.876Z,99166.19
2023-01-19T04:47:49.901Z,99168.13
2023-01-19T04:50:17.657Z,99167.91
2023-01-19T04:52:44.244Z,99172.03
2023-01-19T04:55:10.962Z,99174.56
2023-01-19T04:57:37.471Z,99173.38
2023-01-19T05:00:08.866Z,99182.72
2023-01-19T05:02:35.810Z,99188.53
2023-01-19T05:05:03.125Z,99196.59
2023-01-19T05:07:29.836Z,99184.22
2023-01-19T05:09:57.123Z,99195.56
2023-01-19T05:12:23.655Z,99193.06
2023-01-19T05:14:50.130Z,99187.28
2023-01-19T05:17:16.669Z,99194.78
2023-01-19T05:19:43.217Z,99202.50
2023-01-19T05:22:09.810Z,99211.22
2023-01-19T05:24:36.393Z,99201.31
2023-01-19T05:27:03.004Z,99201.00
2023-01-19T05:29:29.573Z,99192.03
2023-01-19T05:31:56.212Z,99189.22
2023-01-19T05:34:22.773Z,99195.94
2023-01-19T05:36:49.384Z,99206.13
2023-01-19T05:39:15.964Z,99205.44
2023-01-19T05:41:43.548Z,99217.03
2023-01-19T05:44:10.265Z,99218.56
2023-01-19T05:46:36.941Z,99222.16
2023-01-19T05:49:05.132Z,99216.72
2023-01-19T05:51:35.255Z,99222.44
2023-01-19T05:54:02.021Z,99217.94
2023-01-19T05:56:28.772Z,99225.41
2023-01-19T05:58:55.514Z,99228.25
2023-01-19T06:01:22.144Z,99231.38
2023-01-19T06:03:48.939Z,99230.47
2023-01-19T06:06:15.786Z,99237.19
2023-01-19T06:08:42.525Z,99239.19
2023-01-19T06:11:09.109Z,99249.13
2023-01-19T06:13:35.711Z,99244.69
2023-01-19T06:16:03.009Z,99243.88
2023-01-19T06:18:29.635Z,99241.31
2023-01-19T06:20:58.905Z,99239.53
2023-01-19T06:23:27.004Z,99247.13
2023-01-19T06:25:53.525Z,99265.47
2023-01-19T06:28:20.077Z,99275.88
2023-01-19T06:30:50.843Z,99291.28
2023-01-19T06:33:18.116Z,99307.19
2023-01-19T06:35:46.444Z,99301.81
2023-01-19T06:38:13.706Z,99309.72
2023-01-19T06:40:40.985Z,99309.34
2023-01-19T06:43:08.318Z,99313.72
2023-01-19T06:45:35.059Z,99310.59
2023-01-19T06:48:03.131Z,99314.94
2023-01-19T06:50:29.806Z,99325.41
2023-01-19T06:52:56.317Z,99328.28
2023-01-19T06:55:22.844Z,99331.22
2023-01-19T06:57:59.072Z,99323.63
2023-01-19T07:00:26.430Z,99324.75
2023-01-19T07:02:53.325Z,99323.03
2023-01-19T07:05:19.941Z,99323.72
2023-01-19T07:07:53.067Z,99321.88
2023-01-19T07:10:19.655Z,99320.56
2023-01-19T07:12:47.402Z,99316.75
2023-01-19T07:15:15.610Z,99314.53
2023-01-19T07:17:44.040Z,99310.59
2023-01-19T07:20:14.409Z,99304.31
2023-01-19T07:22:43.786Z,99298.28
2023-01-19T07:25:10.311Z,99304.91
2023-01-19T07:27:37.087Z,99313.19
2023-01-19T07:30:04.611Z,99325.84
2023-01-19T07:32:34.123Z,99316.94
2023-01-19T07:35:00.625Z,99308.50
2023-01-19T07:37:27.178Z,99304.47
2023-01-19T07:39:53.654Z,99309.47
2023-01-19T07:42:20.185Z,99309.28
2023-01-19T07:44:46.894Z,99308.44
2023-01-19T07:47:13.740Z,99322.19
2023-01-19T07:49:40.325Z,99317.28
2023-01-19T07:52:07.157Z,99327.06
2023-01-19T07:54:34.039Z,99332.19
2023-01-19T07:57:00.908Z,99334.94
2023-01-19T07:59:31.159Z,99335.69
2023-01-19T08:01:59.640Z,99347.09
2023-01-19T08:04:27.760Z,99361.47
2023-01-19T08:06:56.088Z,99367.59
2023-01-19T08:09:23.132Z,99365.72
2023-01-19T08:11:49.731Z,99362.66
2023-01-19T08:14:16.217Z,99363.22
2023-01-19T08:16:42.815Z,99343.41
2023-01-19T08:19:09.475Z,99334.63
2023-01-19T08:21:36.447Z,99335.00
2023-01-19T08:24:05.427Z,99328.34
2023-01-19T08:26:34.661Z,99328.91
2023-01-19T08:29:04.596Z,99325.53
2023-01-19T08:31:31.551Z,99331.50
2023-01-19T08:33:58.442Z,99322.56
2023-01-19T08:36:25.219Z,99318.84
2023-01-19T08:38:52.011Z,99316.78
2023-01-19T08:41:18.665Z,99320.56
2023-01-19T08:43:45.556Z,99321.28
2023-01-19T08:46:12.682Z,99343.19
2023-01-19T08:48:40.121Z,99327.91
2023-01-19T08:51:06.702Z,99328.47
2023-01-19T08:53:33.303Z,99323.16
2023-01-19T08:56:02.649Z,99341.13
2023-01-19T08:58:29.369Z,99336.81
2023-01-19T09:00:56.298Z,99352.50
2023-01-19T09:03:23.224Z,99357.19
2023-01-19T09:05:50.469Z,99360.59
2023-01-19T09:08:17.409Z,99368.19
2023-01-19T09:10:51.327Z,99361.47
2023-01-19T09:13:18.959Z,99361.34
2023-01-19T09:15:46.074Z,99353.81
2023-01-19T09:18:15.596Z,99360.75
2023-01-19T09:20:44.362Z,99358.69
2023-01-19T09:23:16.686Z,99351.09
2023-01-19T09:25:45.081Z,99351.94
2023-01-19T09:28:14.661Z,99362.66
2023-01-19T09:30:42.357Z,99364.97
2023-01-19T09:33:11.404Z,99371.94
2023-01-19T09:35:39.473Z,99366.75
2023-01-19T09:38:10.636Z,99381.47
2023-01-19T09:40:58.355Z,99381.53
2023-01-19T09:43:41.429Z,99368.84
2023-01-19T09:46:15.428Z,99356.69
2023-01-19T09:48:51.827Z,99360.66
2023-01-19T09:51:27.276Z,99372.81
2023-01-19T09:54:03.168Z,99367.28
2023-01-19T09:56:31.412Z,99368.44
2023-01-19T09:58:58.756Z,99367.84
2023-01-19T10:02:05.296Z,99358.88
2023-01-19T10:04:38.821Z,99351.97
2023-01-19T10:07:14.323Z,99349.03
2023-01-19T10:09:52.129Z,99350.06
2023-01-19T10:12:36.216Z,99360.34
2023-01-19T10:15:33.339Z,99362.97
2023-01-19T10:18:05.665Z,99357.84
2023-01-19T10:20:41.601Z,99348.25
2023-01-19T10:23:26.543Z,99337.91
2023-01-19T10:25:54.488Z,99339.47
2023-01-19T10:28:25.448Z,99335.53
2023-01-19T10:30:55.073Z,99345.69
2023-01-19T10:33:21.910Z,99354.31
2023-01-19T10:35:48.944Z,99350.88
2023-01-19T10:38:22.399Z,99344.09
2023-01-19T10:40:55.558Z,99339.28
2023-01-19T10:43:34.291Z,99339.72
2023-01-19T10:46:05.289Z,99333.72
2023-01-19T10:48:42.226Z,99325.25
2023-01-19T10:51:10.876Z,99327.22
2023-01-19T10:53:37.845Z,99318.84
2023-01-19T10:56:16.729Z,99316.25
2023-01-19T10:58:43.301Z,99324.00
2023-01-19T11:01:15.249Z,99326.22
2023-01-19T11:03:42.025Z,99320.19
2023-01-19T11:06:17.715Z,99324.88
2023-01-19T11:08:46.254Z,99320.63
2023-01-19T11:11:13.886Z,99333.41
2023-01-19T11:13:42.711Z,99330.44
2023-01-19T11:16:27.167Z,99331.03
2023-01-19T11:18:56.197Z,99331.47
2023-01-19T11:21:26.514Z,99322.34
2023-01-19T11:23:55.499Z,99320.25
2023-01-19T11:26:28.923Z,99316.31
2023-01-19T11:28:58.472Z,99320.66
2023-01-19T11:31:27.885Z,99320.56
2023-01-19T11:34:03.751Z,99319.22
2023-01-19T11:36:33.478Z,99322.44
2023-01-19T11:39:20.751Z,99309.34
2023-01-19T11:41:50.885Z,99305.00
2023-01-19T11:44:24.020Z,99304.75
2023-01-19T11:46:56.262Z,99302.44
2023-01-19T11:49:52.400Z,99301.25
2023-01-19T11:52:24.155Z,99305.78
2023-01-19T11:55:29.005Z,99302.41
2023-01-19T11:57:55.535Z,99284.28
2023-01-19T12:00:39.985Z,99292.75
2023-01-19T12:03:24.384Z,99296.22
2023-01-19T12:06:09.629Z,99301.59
2023-01-19T12:08:42.574Z,99294.16
2023-01-19T12:11:12.569Z,99300.38
2023-01-19T12:13:41.952Z,99298.31
2023-01-19T12:16:20.925Z,99300.19
2023-01-19T12:18:59.432Z,99292.56
2023-01-19T12:21:26.032Z,99290.38
2023-01-19T12:24:01.464Z,99295.94
2023-01-19T12:27:07.736Z,99299.63
2023-01-19T12:29:36.731Z,99285.13
2023-01-19T12:32:16.735Z,99291.91
2023-01-19T12:34:45.144Z,99284.47
2023-01-19T12:37:41.699Z,99282.13
2023-01-19T12:40:40.562Z,99292.91
2023-01-19T12:43:07.820Z,99292.88
2023-01-19T12:45:36.028Z,99287.47
2023-01-19T12:48:04.956Z,99290.34
2023-01-19T12:50:37.945Z,99292.13
2023-01-19T12:53:15.892Z,99293.16
2023-01-19T12:55:46.898Z,99285.13
2023-01-19T12:58:24.694Z,99285.56
2023-01-19T13:01:20.092Z,99290.97
2023-01-19T13:04:27.096Z,99300.81
2023-01-19T13:06:56.624Z,99279.19
2023-01-19T13:09:34.731Z,99283.50
2023-01-19T13:12:10.940Z,99278.59
2023-01-19T13:14:38.496Z,99278.75
2023-01-19T13:17:18.760Z,99273.94
2023-01-19T13:19:52.321Z,99273.97
2023-01-19T13:22:50.899Z,99280.28
2023-01-19T13:25:34.343Z,99276.84
2023-01-19T13:28:02.294Z,99277.22
2023-01-19T13:30:30.242Z,99279.44
2023-01-19T13:33:05.573Z,99272.63
2023-01-19T13:35:32.816Z,99279.06
2023-01-19T13:38:00.641Z,99278.66
2023-01-19T13:40:38.412Z,99269.56
2023-01-19T13:43:16.126Z,99279.13
2023-01-19T13:45:50.701Z,99281.19
2023-01-19T13:48:22.361Z,99286.44
2023-01-19T13:51:05.936Z,99288.66
2023-01-19T13:53:33.559Z,99295.69
2023-01-19T13:56:22.153Z,99288.53
2023-01-19T13:58:57.690Z,99296.28
2023-01-19T14:01:27.170Z,99303.56
2023-01-19T14:03:56.244Z,99309.06
2023-01-19T14:06:29.976Z,99303.50
2023-01-19T14:09:26.269Z,99308.91
2023-01-19T14:12:14.251Z,99304.44
2023-01-19T14:14:47.467Z,99309.66
2023-01-19T14:17:30.004Z,99303.16
2023-01-19T14:19:58.941Z,99308.16
2023-01-19T14:22:46.585Z,99308.03
2023-01-19T14:25:28.174Z,99308.91
2023-01-19T14:28:25.577Z,99303.56
2023-01-19T14:31:04.680Z,99298.66
2023-01-19T14:33:43.705Z,99298.97
2023-01-19T14:36:17.906Z,99286.13
2023-01-19T14:38:49.982Z,99296.09
2023-01-19T14:41:30.878Z,99296.63
2023-01-19T14:43:59.275Z,99291.63
2023-01-19T14:46:26.345Z,99306.91
2023-01-19T14:49:01.070Z,99308.97
2023-01-19T14:51:28.860Z,99314.47
2023-01-19T14:53:59.010Z,99308.91
2023-01-19T14:56:28.353Z,99316.91
2023-01-19T14:59:00.997Z,99308.81
2023-01-19T15:01:42.828Z,99308.56
2023-01-19T15:04:09.676Z,99304.16
2023-01-19T15:06:40.774Z,99308.06
2023-01-19T15:09:12.083Z,99310.59
2023-01-19T15:11:39.256Z,99316.06
2023-01-19T15:14:06.298Z,99321.59
2023-01-19T15:16:34.856Z,99328.47
2023-01-19T15:19:01.742Z,99323.03
2023-01-19T15:21:28.374Z,99327.13
2023-01-19T15:23:55.570Z,99329.66
2023-01-19T15:26:25.471Z,99327.22
2023-01-19T15:28:52.679Z,99331.75
2023-01-19T15:31:24.084Z,99326.47
2023-01-19T15:33:51.101Z,99326.94
2023-01-19T15:36:20.067Z,99334.06
2023-01-19T15:38:48.071Z,99337.84
2023-01-19T15:41:23.445Z,99340.41
2023-01-19T15:43:50.815Z,99335.16
2023-01-19T15:46:20.781Z,99340.69
2023-01-19T15:48:48.467Z,99341.56
2023-01-19T15:51:17.371Z,99338.81
2023-01-19T15:53:44.937Z,99337.00
2023-01-19T15:56:23.566Z,99343.25
2023-01-19T15:58:50.766Z,99340.19
2023-01-19T16:01:20.483Z,99338.81
2023-01-19T16:03:47.978Z,99336.69
2023-01-19T16:06:16.293Z,99339.66
2023-01-19T16:08:42.946Z,99340.28
2023-01-19T16:11:14.886Z,99344.63
2023-01-19T16:13:45.587Z,99346.63
2023-01-19T16:16:18.207Z,99353.84
2023-01-19T16:18:45.096Z,99353.94
2023-01-19T16:21:12.491Z,99349.53
2023-01-19T16:23:39.508Z,99342.09
2023-01-19T16:26:08.636Z,99357.00
2023-01-19T16:28:37.100Z,99358.03
2023-01-19T16:31:04.684Z,99361.75
2023-01-19T16:33:31.344Z,99350.44
2023-01-19T16:35:57.872Z,99352.50
2023-01-19T16:38:24.431Z,99346.66
2023-01-19T16:40:51.140Z,99348.97
2023-01-19T16:43:18.668Z,99347.66
2023-01-19T16:46:00.490Z,99357.88
2023-01-19T16:48:27.951Z,99353.53
2023-01-19T16:51:02.157Z,99343.00
2023-01-19T16:53:29.698Z,99346.31
2023-01-19T16:55:56.503Z,99347.59
2023-01-19T16:58:23.412Z,99352.63
2023-01-19T17:00:50.337Z,99356.47
2023-01-19T17:03:17.031Z,99356.44
2023-01-19T17:05:49.547Z,99351.94
2023-01-19T17:08:18.532Z,99352.06
2023-01-19T17:10:45.326Z,99348.00
2023-01-19T17:13:11.913Z,99354.69
2023-01-19T17:15:38.450Z,99353.25
2023-01-19T17:18:05.158Z,99353.53
2023-01-19T17:20:33.970Z,99341.41
2023-01-19T17:23:04.234Z,99346.31
2023-01-19T17:25:30.908Z,99345.06
2023-01-19T17:28:01.214Z,99341.66
2023-01-19T17:30:27.781Z,99356.16
2023-01-19T17:32:54.512Z,99353.22
2023-01-19T17:35:21.189Z,99339.53
2023-01-19T17:37:47.882Z,99343.91
2023-01-19T17:40:15.034Z,99338.31
2023-01-19T17:42:42.015Z,99338.50
2023-01-19T17:45:10.898Z,99340.94
2023-01-19T17:47:38.393Z,99337.22
2023-01-19T17:50:05.541Z,99342.78
2023-01-19T17:52:32.127Z,99346.59
2023-01-19T17:54:58.794Z,99350.19
2023-01-19T17:57:25.317Z,99345.28
2023-01-19T17:59:51.845Z,99352.16
2023-01-19T18:04:47.341Z,99344.69
2023-01-19T18:07:16.387Z,99348.44
2023-01-19T18:09:42.949Z,99343.22
2023-01-19T18:12:16.209Z,99338.13
2023-01-19T18:14:42.798Z,99343.69
2023-01-19T18:17:27.773Z,99334.34
2023-01-19T18:20:03.060Z,99325.25
2023-01-19T18:22:35.538Z,99325.31
2023-01-19T18:25:02.281Z,99334.34
2023-01-19T18:27:33.745Z,99336.75
2023-01-19T18:30:15.076Z,99340.81
2023-01-19T18:32:52.346Z,99340.19
2023-01-19T18:35:31.852Z,99343.84
2023-01-19T18:38:04.321Z,99338.59
2023-01-19T18:40:32.039Z,99345.47
2023-01-19T18:42:59.931Z,99348.28
2023-01-19T18:45:29.116Z,99350.78
2023-01-19T18:47:55.792Z,99341.84
2023-01-19T18:50:22.597Z,99345.09
2023-01-19T18:52:51.290Z,99333.63
2023-01-19T18:55:19.521Z,99335.47
2023-01-19T18:57:46.100Z,99334.31
2023-01-19T19:00:13.524Z,99340.56
2023-01-19T19:02:52.556Z,99343.94
2023-01-19T19:05:27.119Z,99342.22
2023-01-19T19:07:53.662Z,99351.91
2023-01-19T19:10:20.604Z,99347.75
2023-01-19T19:12:48.335Z,99341.03
2023-01-19T19:15:18.069Z,99343.63
2023-01-19T19:17:50.417Z,99350.97
2023-01-19T19:20:21.501Z,99360.19
2023-01-19T19:22:48.485Z,99352.47
2023-01-19T19:25:19.940Z,99349.75
2023-01-19T19:27:54.848Z,99353.03
2023-01-19T19:30:24.566Z,99354.28
2023-01-19T19:32:59.111Z,99353.72
2023-01-19T19:35:37.368Z,99352.94
2023-01-19T19:38:04.192Z,99356.97
2023-01-19T19:40:30.821Z,99363.75
2023-01-19T19:43:00.462Z,99362.75
2023-01-19T19:45:27.224Z,99366.22
2023-01-19T19:47:56.743Z,99368.94
2023-01-19T19:50:32.084Z,99375.66
2023-01-19T19:53:04.392Z,99375.44
2023-01-19T19:55:30.958Z,99375.84
2023-01-19T19:58:00.300Z,99388.19
2023-01-19T20:00:27.607Z,99385.88
2023-01-19T20:02:54.288Z,99384.34
2023-01-19T20:05:21.092Z,99385.00
2023-01-19T20:07:48.400Z,99385.00
2023-01-19T20:10:18.091Z,99383.09
2023-01-19T20:12:47.306Z,99385.81
2023-01-19T20:15:13.991Z,99391.63
2023-01-19T20:17:40.517Z,99384.81
2023-01-19T20:20:10.990Z,99391.38
2023-01-19T20:22:37.676Z,99391.28
2023-01-19T20:25:12.884Z,99395.38
2023-01-19T20:27:39.562Z,99395.75
2023-01-19T20:30:07.406Z,99405.28
2023-01-19T20:32:41.308Z,99413.41
2023-01-19T20:35:07.944Z,99404.66
2023-01-19T20:37:42.165Z,99400.91
2023-01-19T20:40:12.268Z,99407.34
2023-01-19T20:42:46.749Z,99405.34
2023-01-19T20:45:13.766Z,99407.34
2023-01-19T20:50:25.164Z,99407.78
2023-01-19T20:52:51.633Z,99408.78
2023-01-19T20:55:18.443Z,99411.13
2023-01-19T20:57:45.042Z,99410.94
2023-01-19T21:00:12.034Z,99406.13
2023-01-19T21:02:38.612Z,99417.75
2023-01-19T21:05:05.736Z,99413.13
2023-01-19T21:07:32.304Z,99412.97
2023-01-19T21:09:58.893Z,99417.31
2023-01-19T21:12:25.573Z,99421.38
2023-01-19T21:14:52.057Z,99413.28
2023-01-19T21:17:18.567Z,99430.00
2023-01-19T21:19:45.083Z,99437.97
2023-01-19T21:22:11.741Z,99428.31
2023-01-19T21:24:38.263Z,99439.38
2023-01-19T21:27:04.737Z,99440.28
2023-01-19T21:29:31.392Z,99443.78
2023-01-19T21:31:57.985Z,99447.34
2023-01-19T21:34:24.526Z,99453.56
2023-01-19T21:36:52.556Z,99448.97
2023-01-19T21:39:19.091Z,99455.94
2023-01-19T21:41:45.808Z,99461.25
2023-01-19T21:44:19.272Z,99469.25
2023-01-19T21:46:47.278Z,99473.69
2023-01-19T21:49:27.870Z,99476.19
2023-01-19T21:52:03.499Z,99481.78
2023-01-19T21:54:39.316Z,99480.03
2023-01-19T21:57:08.269Z,99483.22
2023-01-19T21:59:41.909Z,99488.97
2023-01-19T22:02:29.868Z,99499.84
2023-01-19T22:05:12.859Z,99497.16
2023-01-19T22:07:39.483Z,99493.22
2023-01-19T22:10:06.351Z,99494.38
2023-01-19T22:12:37.856Z,99500.97
2023-01-19T22:15:06.347Z,99495.56
2023-01-19T22:17:43.477Z,99507.31
2023-01-19T22:20:16.069Z,99503.28
2023-01-19T22:22:50.998Z,99493.94
2023-01-19T22:25:17.556Z,99502.38
2023-01-19T22:27:49.844Z,99500.31
2023-01-19T22:30:31.524Z,99501.59
2023-01-19T22:33:07.509Z,99500.31
2023-01-19T22:35:52.220Z,99499.03
2023-01-19T22:38:31.917Z,99498.19
2023-01-19T22:41:01.413Z,99499.13
2023-01-19T22:43:40.149Z,99506.09
2023-01-19T22:46:12.307Z,99512.56
2023-01-19T22:48:48.745Z,99517.78
2023-01-19T22:51:15.995Z,99517.59
2023-01-19T22:53:42.680Z,99513.41
2023-01-19T22:56:23.872Z,99529.03
2023-01-19T22:58:50.586Z,99524.84
2023-01-19T23:01:31.278Z,99525.38
2023-01-19T23:04:00.525Z,99524.97
2023-01-19T23:06:30.512Z,99529.09
2023-01-19T23:09:00.143Z,99527.28
2023-01-19T23:11:37.565Z,99528.00
2023-01-19T23:14:06.825Z,99539.19
2023-01-19T23:16:37.424Z,99544.00
2023-01-19T23:19:07.585Z,99548.88
2023-01-19T23:21:45.711Z,99552.38
2023-01-19T23:24:17.485Z,99557.31
2023-01-19T23:26:48.502Z,99561.31
2023-01-19T23:29:38.690Z,99560.16
2023-01-19T23:32:08.156Z,99556.50
2023-01-19T23:34:37.209Z,99565.47
2023-01-19T23:37:04.715Z,99564.91
2023-01-19T23:39:38.521Z,99568.09
2023-01-19T23:42:05.316Z,99563.59
2023-01-19T23:44:31.804Z,99570.78
2023-01-19T23:46:58.302Z,99562.19
2023-01-19T23:49:25.025Z,99569.38
2023-01-19T23:52:09.549Z,99576.41
2023-01-19T23:54:45.098Z,99578.19
2023-01-19T23:57:26.788Z,99587.69
2023-01-19T23:59:59.386Z,99590.78
